sensor_id;sensor_type;location;lat;lon;timestamp;pressure;altitude;pressure_sealevel;temperature;humidity
46876;BME280;32866;50.160;14.768;2023-01-23T00:02:16;100845.06;;;-1.01;100.00
46876;BME280;32866;50.160;14.768;2023-01-23T00:04:42;100848.09;;;-1.02;100.00
46876;BME280;32866;50.160;14.768;2023-01-23T00:07:07;100839.38;;;-0.99;100.00
46876;BME280;32866;50.160;14.768;2023-01-23T00:09:33;100838.00;;;-1.05;100.00
46876;BME280;32866;50.160;14.768;2023-01-23T00:11:58;100827.75;;;-1.21;100.00
46876;BME280;32866;50.160;14.768;2023-01-23T00:14:23;100844.47;;;-1.06;100.00
46876;BME280;32866;50.160;14.768;2023-01-23T00:16:49;100841.31;;;-1.08;100.00
46876;BME280;32866;50.160;14.768;2023-01-23T00:19:15;100842.97;;;-1.25;100.00
46876;BME280;32866;50.160;14.768;2023-01-23T00:21:41;100820.34;;;-1.33;100.00
46876;BME280;32866;50.160;14.768;2023-01-23T00:24:07;100817.97;;;-1.25;100.00
46876;BME280;32866;50.160;14.768;2023-01-23T00:26:34;100819.41;;;-1.28;100.00
46876;BME280;32866;50.160;14.768;2023-01-23T00:29:00;100858.38;;;-1.04;100.00
46876;BME280;32866;50.160;14.768;2023-01-23T00:31:30;100853.47;;;-1.02;100.00
46876;BME280;32866;50.160;14.768;2023-01-23T00:33:58;100851.59;;;-1.02;100.00
46876;BME280;32866;50.160;14.768;2023-01-23T00:36:28;100860.16;;;-1.08;100.00
46876;BME280;32866;50.160;14.768;2023-01-23T00:38:54;100852.38;;;-1.01;100.00
46876;BME280;32866;50.160;14.768;2023-01-23T00:41:19;100836.16;;;-1.22;100.00
46876;BME280;32866;50.160;14.768;2023-01-23T00:43:45;100848.78;;;-1.14;100.00
46876;BME280;32866;50.160;14.768;2023-01-23T00:46:12;100857.44;;;-1.00;100.00
46876;BME280;32866;50.160;14.768;2023-01-23T00:48:37;100859.09;;;-0.86;100.00
46876;BME280;32866;50.160;14.768;2023-01-23T00:51:03;100837.31;;;-1.02;100.00
46876;BME280;32866;50.160;14.768;2023-01-23T00:53:28;100867.28;;;-0.74;100.00
46876;BME280;32866;50.160;14.768;2023-01-23T00:55:54;100871.31;;;-0.89;100.00
46876;BME280;32866;50.160;14.768;2023-01-23T00:58:20;100869.78;;;-0.99;100.00
46876;BME280;32866;50.160;14.768;2023-01-23T01:00:45;100855.50;;;-0.99;100.00
46876;BME280;32866;50.160;14.768;2023-01-23T01:03:10;100888.94;;;-0.70;100.00
46876;BME280;32866;50.160;14.768;2023-01-23T01:05:36;100882.50;;;-0.78;100.00
46876;BME280;32866;50.160;14.768;2023-01-23T01:08:01;100865.63;;;-0.96;100.00
46876;BME280;32866;50.160;14.768;2023-01-23T01:10:27;100883.66;;;-0.88;100.00
46876;BME280;32866;50.160;14.768;2023-01-23T01:12:55;100881.34;;;-0.98;100.00
46876;BME280;32866;50.160;14.768;2023-01-23T01:15:20;100875.84;;;-1.10;100.00
46876;BME280;32866;50.160;14.768;2023-01-23T01:21:09;100882.78;;;-1.09;100.00
46876;BME280;32866;50.160;14.768;2023-01-23T01:23:36;100882.16;;;-1.06;100.00
46876;BME280;32866;50.160;14.768;2023-01-23T01:26:03;100884.38;;;-1.08;100.00
46876;BME280;32866;50.160;14.768;2023-01-23T01:28:29;100856.88;;;-1.23;100.00
46876;BME280;32866;50.160;14.768;2023-01-23T01:30:56;100892.91;;;-0.68;100.00
46876;BME280;32866;50.160;14.768;2023-01-23T01:33:22;100878.28;;;-0.88;100.00
46876;BME280;32866;50.160;14.768;2023-01-23T01:35:48;100875.63;;;-0.97;100.00
46876;BME280;32866;50.160;14.768;2023-01-23T01:38:14;100862.09;;;-1.18;100.00
46876;BME280;32866;50.160;14.768;2023-01-23T01:40:39;100836.22;;;-1.40;100.00
46876;BME280;32866;50.160;14.768;2023-01-23T01:43:08;100866.19;;;-1.12;100.00
46876;BME280;32866;50.160;14.768;2023-01-23T01:46:16;100872.03;;;-1.09;100.00
46876;BME280;32866;50.160;14.768;2023-01-23T01:51:30;100857.69;;;-1.22;100.00
46876;BME280;32866;50.160;14.768;2023-01-23T01:54:02;100881.56;;;-1.21;100.00
46876;BME280;32866;50.160;14.768;2023-01-23T01:56:31;100866.09;;;-1.24;100.00
46876;BME280;32866;50.160;14.768;2023-01-23T01:58:59;100849.63;;;-1.31;100.00
46876;BME280;32866;50.160;14.768;2023-01-23T02:01:26;100846.28;;;-1.28;100.00
46876;BME280;32866;50.160;14.768;2023-01-23T02:03:52;100871.03;;;-0.96;100.00
46876;BME280;32866;50.160;14.768;2023-01-23T02:06:18;100876.91;;;-1.03;100.00
46876;BME280;32866;50.160;14.768;2023-01-23T02:09:02;100837.81;;;-1.39;100.00
46876;BME280;32866;50.160;14.768;2023-01-23T02:11:28;100837.81;;;-1.47;100.00
46876;BME280;32866;50.160;14.768;2023-01-23T02:13:54;100869.38;;;-1.18;100.00
46876;BME280;32866;50.160;14.768;2023-01-23T02:16:29;100861.75;;;-1.16;100.00
46876;BME280;32866;50.160;14.768;2023-01-23T02:19:03;100864.34;;;-1.28;100.00
46876;BME280;32866;50.160;14.768;2023-01-23T02:21:31;100841.00;;;-1.45;100.00
46876;BME280;32866;50.160;14.768;2023-01-23T02:24:16;100881.72;;;-1.26;100.00
46876;BME280;32866;50.160;14.768;2023-01-23T02:26:44;100875.56;;;-1.26;100.00
46876;BME280;32866;50.160;14.768;2023-01-23T02:29:11;100877.94;;;-1.25;100.00
46876;BME280;32866;50.160;14.768;2023-01-23T02:31:37;100883.31;;;-1.25;100.00
46876;BME280;32866;50.160;14.768;2023-01-23T02:34:04;100879.22;;;-1.31;100.00
46876;BME280;32866;50.160;14.768;2023-01-23T02:36:32;100888.53;;;-1.20;100.00
46876;BME280;32866;50.160;14.768;2023-01-23T02:39:18;100894.69;;;-1.19;100.00
46876;BME280;32866;50.160;14.768;2023-01-23T02:41:46;100900.53;;;-1.08;100.00
46876;BME280;32866;50.160;14.768;2023-01-23T02:44:30;100904.81;;;-0.78;100.00
46876;BME280;32866;50.160;14.768;2023-01-23T02:46:59;100900.38;;;-0.73;100.00
46876;BME280;32866;50.160;14.768;2023-01-23T02:49:25;100902.72;;;-0.63;100.00
46876;BME280;32866;50.160;14.768;2023-01-23T02:51:51;100901.16;;;-0.73;100.00
46876;BME280;32866;50.160;14.768;2023-01-23T02:54:17;100903.72;;;-0.77;100.00
46876;BME280;32866;50.160;14.768;2023-01-23T02:56:44;100851.13;;;-1.13;100.00
46876;BME280;32866;50.160;14.768;2023-01-23T02:59:09;100902.84;;;-0.98;100.00
46876;BME280;32866;50.160;14.768;2023-01-23T03:01:53;100904.13;;;-1.04;100.00
46876;BME280;32866;50.160;14.768;2023-01-23T03:04:19;100878.13;;;-1.30;100.00
46876;BME280;32866;50.160;14.768;2023-01-23T03:06:44;100904.44;;;-0.97;100.00
46876;BME280;32866;50.160;14.768;2023-01-23T03:09:21;100906.13;;;-0.84;100.00
46876;BME280;32866;50.160;14.768;2023-01-23T03:11:47;100884.34;;;-1.00;100.00
46876;BME280;32866;50.160;14.768;2023-01-23T03:14:15;100910.47;;;-0.70;100.00
46876;BME280;32866;50.160;14.768;2023-01-23T03:16:42;100896.50;;;-0.94;100.00
46876;BME280;32866;50.160;14.768;2023-01-23T03:19:09;100883.59;;;-1.18;100.00
46876;BME280;32866;50.160;14.768;2023-01-23T03:21:37;100887.88;;;-1.17;100.00
46876;BME280;32866;50.160;14.768;2023-01-23T03:24:06;100905.66;;;-0.86;100.00
46876;BME280;32866;50.160;14.768;2023-01-23T03:26:31;100868.94;;;-1.29;100.00
46876;BME280;32866;50.160;14.768;2023-01-23T03:28:57;100900.84;;;-1.10;100.00
46876;BME280;32866;50.160;14.768;2023-01-23T03:31:41;100882.16;;;-1.06;100.00
46876;BME280;32866;50.160;14.768;2023-01-23T03:34:06;100895.31;;;-1.14;100.00
46876;BME280;32866;50.160;14.768;2023-01-23T03:36:33;100891.50;;;-1.13;100.00
46876;BME280;32866;50.160;14.768;2023-01-23T03:39:05;100892.16;;;-1.16;100.00
46876;BME280;32866;50.160;14.768;2023-01-23T03:41:49;100859.31;;;-1.39;100.00
46876;BME280;32866;50.160;14.768;2023-01-23T03:44:16;100871.47;;;-1.33;100.00
46876;BME280;32866;50.160;14.768;2023-01-23T03:46:43;100879.25;;;-1.40;100.00
46876;BME280;32866;50.160;14.768;2023-01-23T03:49:09;100890.38;;;-1.03;100.00
46876;BME280;32866;50.160;14.768;2023-01-23T03:51:34;100896.13;;;-1.22;100.00
46876;BME280;32866;50.160;14.768;2023-01-23T03:53:59;100888.34;;;-1.15;100.00
46876;BME280;32866;50.160;14.768;2023-01-23T03:56:25;100897.78;;;-1.00;100.00
46876;BME280;32866;50.160;14.768;2023-01-23T03:58:53;100883.81;;;-1.32;100.00
46876;BME280;32866;50.160;14.768;2023-01-23T04:01:18;100893.56;;;-1.09;100.00
46876;BME280;32866;50.160;14.768;2023-01-23T04:03:44;100922.13;;;-0.87;100.00
46876;BME280;32866;50.160;14.768;2023-01-23T04:06:09;100897.38;;;-1.10;100.00
46876;BME280;32866;50.160;14.768;2023-01-23T04:08:34;100913.72;;;-0.86;100.00
46876;BME280;32866;50.160;14.768;2023-01-23T04:11:05;100913.09;;;-0.83;100.00
46876;BME280;32866;50.160;14.768;2023-01-23T04:13:31;100902.81;;;-0.89;100.00
46876;BME280;32866;50.160;14.768;2023-01-23T04:15:56;100909.19;;;-1.03;100.00
46876;BME280;32866;50.160;14.768;2023-01-23T04:18:22;100916.31;;;-0.98;100.00
46876;BME280;32866;50.160;14.768;2023-01-23T04:20:47;100900.09;;;-1.28;100.00
46876;BME280;32866;50.160;14.768;2023-01-23T04:23:12;100923.19;;;-1.18;100.00
46876;BME280;32866;50.160;14.768;2023-01-23T04:25:38;100900.31;;;-1.51;100.00
46876;BME280;32866;50.160;14.768;2023-01-23T04:28:03;100900.78;;;-1.48;100.00
46876;BME280;32866;50.160;14.768;2023-01-23T04:30:29;100920.84;;;-1.46;100.00
46876;BME280;32866;50.160;14.768;2023-01-23T04:32:54;100912.97;;;-1.60;100.00
46876;BME280;32866;50.160;14.768;2023-01-23T04:35:19;100900.66;;;-1.87;100.00
46876;BME280;32866;50.160;14.768;2023-01-23T04:37:45;100873.47;;;-2.03;100.00
46876;BME280;32866;50.160;14.768;2023-01-23T04:40:11;100903.66;;;-1.71;100.00
46876;BME280;32866;50.160;14.768;2023-01-23T04:42:36;100915.66;;;-1.60;100.00
46876;BME280;32866;50.160;14.768;2023-01-23T04:45:01;100907.94;;;-1.88;100.00
46876;BME280;32866;50.160;14.768;2023-01-23T04:47:27;100919.00;;;-1.89;100.00
46876;BME280;32866;50.160;14.768;2023-01-23T04:49:52;100880.28;;;-2.14;100.00
46876;BME280;32866;50.160;14.768;2023-01-23T04:52:17;100900.19;;;-2.15;100.00
46876;BME280;32866;50.160;14.768;2023-01-23T04:54:43;100884.06;;;-1.98;100.00
46876;BME280;32866;50.160;14.768;2023-01-23T04:57:08;100869.69;;;-2.19;100.00
46876;BME280;32866;50.160;14.768;2023-01-23T04:59:34;100868.09;;;-2.20;100.00
46876;BME280;32866;50.160;14.768;2023-01-23T05:01:59;100868.84;;;-2.55;100.00
46876;BME280;32866;50.160;14.768;2023-01-23T05:04:26;100891.00;;;-2.32;100.00
46876;BME280;32866;50.160;14.768;2023-01-23T05:06:52;100864.28;;;-2.54;100.00
46876;BME280;32866;50.160;14.768;2023-01-23T05:09:17;100891.81;;;-2.22;100.00
46876;BME280;32866;50.160;14.768;2023-01-23T05:11:44;100903.50;;;-2.18;100.00
46876;BME280;32866;50.160;14.768;2023-01-23T05:14:09;100864.44;;;-2.51;100.00
46876;BME280;32866;50.160;14.768;2023-01-23T05:16:34;100903.94;;;-2.34;100.00
46876;BME280;32866;50.160;14.768;2023-01-23T05:19:00;100877.53;;;-2.49;100.00
46876;BME280;32866;50.160;14.768;2023-01-23T05:21:25;100875.00;;;-2.54;100.00
46876;BME280;32866;50.160;14.768;2023-01-23T05:23:51;100916.38;;;-2.47;100.00
46876;BME280;32866;50.160;14.768;2023-01-23T05:26:16;100884.28;;;-2.78;100.00
46876;BME280;32866;50.160;14.768;2023-01-23T05:28:41;100888.63;;;-2.91;100.00
46876;BME280;32866;50.160;14.768;2023-01-23T05:31:11;100918.72;;;-2.71;100.00
46876;BME280;32866;50.160;14.768;2023-01-23T05:33:36;100890.59;;;-3.14;100.00
46876;BME280;32866;50.160;14.768;2023-01-23T05:36:03;100928.25;;;-2.96;100.00
46876;BME280;32866;50.160;14.768;2023-01-23T05:38:29;100932.53;;;-3.18;100.00
46876;BME280;32866;50.160;14.768;2023-01-23T05:40:55;100903.53;;;-3.39;100.00
46876;BME280;32866;50.160;14.768;2023-01-23T05:43:20;100941.59;;;-3.05;100.00
46876;BME280;32866;50.160;14.768;2023-01-23T05:45:45;100956.63;;;-2.95;100.00
46876;BME280;32866;50.160;14.768;2023-01-23T05:48:11;100959.09;;;-3.08;100.00
46876;BME280;32866;50.160;14.768;2023-01-23T05:50:36;100946.69;;;-3.26;100.00
46876;BME280;32866;50.160;14.768;2023-01-23T05:53:02;100948.69;;;-3.32;100.00
46876;BME280;32866;50.160;14.768;2023-01-23T05:55:28;100962.69;;;-3.12;100.00
46876;BME280;32866;50.160;14.768;2023-01-23T05:57:53;100943.13;;;-3.13;100.00
46876;BME280;32866;50.160;14.768;2023-01-23T06:00:19;100959.94;;;-2.99;100.00
46876;BME280;32866;50.160;14.768;2023-01-23T06:02:44;100951.44;;;-3.23;100.00
46876;BME280;32866;50.160;14.768;2023-01-23T06:05:11;100971.59;;;-3.03;100.00
46876;BME280;32866;50.160;14.768;2023-01-23T06:07:37;100955.22;;;-3.24;100.00
46876;BME280;32866;50.160;14.768;2023-01-23T06:10:03;100945.28;;;-3.24;100.00
46876;BME280;32866;50.160;14.768;2023-01-23T06:12:28;100987.88;;;-3.00;100.00
46876;BME280;32866;50.160;14.768;2023-01-23T06:14:54;100983.00;;;-3.20;100.00
46876;BME280;32866;50.160;14.768;2023-01-23T06:17:19;101001.09;;;-3.26;100.00
46876;BME280;32866;50.160;14.768;2023-01-23T06:19:44;101003.91;;;-3.53;100.00
46876;BME280;32866;50.160;14.768;2023-01-23T06:22:10;100991.19;;;-3.84;100.00
46876;BME280;32866;50.160;14.768;2023-01-23T06:24:35;101002.59;;;-3.79;100.00
46876;BME280;32866;50.160;14.768;2023-01-23T06:27:00;101011.13;;;-3.91;100.00
46876;BME280;32866;50.160;14.768;2023-01-23T06:29:28;101003.22;;;-4.10;100.00
46876;BME280;32866;50.160;14.768;2023-01-23T06:31:53;101008.56;;;-4.10;100.00
46876;BME280;32866;50.160;14.768;2023-01-23T06:34:18;101004.72;;;-4.17;100.00
46876;BME280;32866;50.160;14.768;2023-01-23T06:36:44;100987.97;;;-4.23;100.00
46876;BME280;32866;50.160;14.768;2023-01-23T06:39:11;101013.44;;;-4.12;100.00
46876;BME280;32866;50.160;14.768;2023-01-23T06:41:37;100992.81;;;-4.25;100.00
46876;BME280;32866;50.160;14.768;2023-01-23T06:44:02;100979.81;;;-4.18;100.00
46876;BME280;32866;50.160;14.768;2023-01-23T06:46:27;101002.69;;;-3.84;100.00
46876;BME280;32866;50.160;14.768;2023-01-23T06:48:53;101010.81;;;-3.89;100.00
46876;BME280;32866;50.160;14.768;2023-01-23T06:51:18;100991.69;;;-3.96;100.00
46876;BME280;32866;50.160;14.768;2023-01-23T06:53:44;101014.13;;;-3.92;100.00
46876;BME280;32866;50.160;14.768;2023-01-23T06:56:09;101025.47;;;-3.73;100.00
46876;BME280;32866;50.160;14.768;2023-01-23T06:58:36;101010.94;;;-3.94;100.00
46876;BME280;32866;50.160;14.768;2023-01-23T07:01:10;101027.19;;;-3.77;100.00
46876;BME280;32866;50.160;14.768;2023-01-23T07:03:36;101048.13;;;-3.79;100.00
46876;BME280;32866;50.160;14.768;2023-01-23T07:06:03;101027.19;;;-3.91;100.00
46876;BME280;32866;50.160;14.768;2023-01-23T07:08:31;101041.41;;;-3.90;100.00
46876;BME280;32866;50.160;14.768;2023-01-23T07:10:57;101043.78;;;-4.02;100.00
46876;BME280;32866;50.160;14.768;2023-01-23T07:13:23;101027.34;;;-4.23;100.00
46876;BME280;32866;50.160;14.768;2023-01-23T07:15:48;101019.38;;;-4.42;100.00
46876;BME280;32866;50.160;14.768;2023-01-23T07:18:13;101043.41;;;-4.37;100.00
46876;BME280;32866;50.160;14.768;2023-01-23T07:20:39;101009.28;;;-4.45;100.00
46876;BME280;32866;50.160;14.768;2023-01-23T07:23:08;101037.66;;;-4.31;100.00
46876;BME280;32866;50.160;14.768;2023-01-23T07:25:34;101021.75;;;-4.69;100.00
46876;BME280;32866;50.160;14.768;2023-01-23T07:27:59;101072.78;;;-4.65;100.00
46876;BME280;32866;50.160;14.768;2023-01-23T07:30:24;101075.69;;;-4.48;100.00
46876;BME280;32866;50.160;14.768;2023-01-23T07:32:51;101059.19;;;-4.82;100.00
46876;BME280;32866;50.160;14.768;2023-01-23T07:35:16;101097.31;;;-4.91;100.00
46876;BME280;32866;50.160;14.768;2023-01-23T07:37:41;101034.91;;;-5.57;100.00
46876;BME280;32866;50.160;14.768;2023-01-23T07:40:08;101079.25;;;-5.18;100.00
46876;BME280;32866;50.160;14.768;2023-01-23T07:42:35;101062.66;;;-5.34;100.00
46876;BME280;32866;50.160;14.768;2023-01-23T07:45:00;101083.31;;;-4.88;100.00
46876;BME280;32866;50.160;14.768;2023-01-23T07:47:25;101049.63;;;-5.03;100.00
46876;BME280;32866;50.160;14.768;2023-01-23T07:49:51;101051.16;;;-4.82;100.00
46876;BME280;32866;50.160;14.768;2023-01-23T07:52:16;101073.63;;;-4.23;100.00
46876;BME280;32866;50.160;14.768;2023-01-23T07:54:42;101080.88;;;-4.23;100.00
46876;BME280;32866;50.160;14.768;2023-01-23T07:57:07;101086.84;;;-3.99;100.00
46876;BME280;32866;50.160;14.768;2023-01-23T07:59:32;101086.47;;;-3.92;100.00
46876;BME280;32866;50.160;14.768;2023-01-23T08:01:58;101057.69;;;-4.00;100.00
46876;BME280;32866;50.160;14.768;2023-01-23T08:04:23;101087.19;;;-3.64;100.00
46876;BME280;32866;50.160;14.768;2023-01-23T08:06:48;101068.66;;;-3.60;100.00
46876;BME280;32866;50.160;14.768;2023-01-23T08:09:14;101051.88;;;-3.66;100.00
46876;BME280;32866;50.160;14.768;2023-01-23T08:11:39;101092.59;;;-3.27;100.00
46876;BME280;32866;50.160;14.768;2023-01-23T08:14:05;101049.94;;;-3.15;100.00
46876;BME280;32866;50.160;14.768;2023-01-23T08:16:30;101089.00;;;-2.77;100.00
46876;BME280;32866;50.160;14.768;2023-01-23T08:18:55;101078.66;;;-2.62;100.00
46876;BME280;32866;50.160;14.768;2023-01-23T08:21:21;101061.91;;;-2.36;100.00
46876;BME280;32866;50.160;14.768;2023-01-23T08:23:46;101067.22;;;-2.13;100.00
46876;BME280;32866;50.160;14.768;2023-01-23T08:26:14;101099.94;;;-1.54;100.00
46876;BME280;32866;50.160;14.768;2023-01-23T08:28:41;101106.91;;;-1.26;100.00
46876;BME280;32866;50.160;14.768;2023-01-23T08:31:08;101107.06;;;-1.14;100.00
46876;BME280;32866;50.160;14.768;2023-01-23T08:33:35;101102.00;;;-0.89;100.00
46876;BME280;32866;50.160;14.768;2023-01-23T08:36:01;101111.03;;;-0.77;100.00
46876;BME280;32866;50.160;14.768;2023-01-23T08:38:27;101107.34;;;-0.54;100.00
46876;BME280;32866;50.160;14.768;2023-01-23T08:40:53;101110.66;;;-0.49;100.00
46876;BME280;32866;50.160;14.768;2023-01-23T08:43:20;101101.72;;;-0.23;100.00
46876;BME280;32866;50.160;14.768;2023-01-23T08:45:50;101110.53;;;-0.14;100.00
46876;BME280;32866;50.160;14.768;2023-01-23T08:48:16;101112.19;;;-0.30;100.00
46876;BME280;32866;50.160;14.768;2023-01-23T08:50:42;101110.25;;;-0.21;100.00
46876;BME280;32866;50.160;14.768;2023-01-23T08:53:07;101102.59;;;-0.02;100.00
46876;BME280;32866;50.160;14.768;2023-01-23T08:55:33;101130.97;;;-0.04;100.00
46876;BME280;32866;50.160;14.768;2023-01-23T08:58:00;101139.88;;;-0.12;100.00
46876;BME280;32866;50.160;14.768;2023-01-23T09:00:26;101136.84;;;-0.11;100.00
46876;BME280;32866;50.160;14.768;2023-01-23T09:02:52;101139.25;;;-0.18;100.00
46876;BME280;32866;50.160;14.768;2023-01-23T09:05:17;101106.22;;;-0.45;100.00
46876;BME280;32866;50.160;14.768;2023-01-23T09:07:43;101115.09;;;-0.06;100.00
46876;BME280;32866;50.160;14.768;2023-01-23T09:10:09;101135.63;;;-0.22;100.00
46876;BME280;32866;50.160;14.768;2023-01-23T09:12:34;101124.69;;;0.13;100.00
46876;BME280;32866;50.160;14.768;2023-01-23T09:15:00;101130.72;;;0.10;100.00
46876;BME280;32866;50.160;14.768;2023-01-23T09:17:25;101127.59;;;0.38;100.00
46876;BME280;32866;50.160;14.768;2023-01-23T09:19:52;101128.31;;;0.47;100.00
46876;BME280;32866;50.160;14.768;2023-01-23T09:22:18;101126.63;;;0.63;100.00
46876;BME280;32866;50.160;14.768;2023-01-23T09:24:44;101118.72;;;0.58;100.00
46876;BME280;32866;50.160;14.768;2023-01-23T09:27:09;101105.50;;;0.65;100.00
46876;BME280;32866;50.160;14.768;2023-01-23T09:29:35;101119.00;;;0.86;100.00
46876;BME280;32866;50.160;14.768;2023-01-23T09:32:01;101127.44;;;0.85;100.00
46876;BME280;32866;50.160;14.768;2023-01-23T09:34:26;101128.38;;;0.89;100.00
46876;BME280;32866;50.160;14.768;2023-01-23T09:36:52;101131.13;;;1.01;100.00
46876;BME280;32866;50.160;14.768;2023-01-23T09:39:17;101126.94;;;1.04;100.00
46876;BME280;32866;50.160;14.768;2023-01-23T09:41:43;101104.16;;;1.14;100.00
46876;BME280;32866;50.160;14.768;2023-01-23T09:47:01;101122.13;;;1.30;100.00
46876;BME280;32866;50.160;14.768;2023-01-23T09:52:45;101118.53;;;1.39;100.00
46876;BME280;32866;50.160;14.768;2023-01-23T09:55:16;101110.66;;;1.79;100.00
46876;BME280;32866;50.160;14.768;2023-01-23T09:57:55;101100.94;;;1.66;100.00
46876;BME280;32866;50.160;14.768;2023-01-23T10:02:48;101099.28;;;1.86;100.00
46876;BME280;32866;50.160;14.768;2023-01-23T10:05:19;101110.88;;;2.23;100.00
46876;BME280;32866;50.160;14.768;2023-01-23T10:13:46;101112.81;;;2.23;100.00
46876;BME280;32866;50.160;14.768;2023-01-23T10:22:06;101085.22;;;2.58;100.00
46876;BME280;32866;50.160;14.768;2023-01-23T10:24:43;101106.94;;;2.86;100.00
46876;BME280;32866;50.160;14.768;2023-01-23T10:27:17;101106.38;;;2.81;100.00
46876;BME280;32866;50.160;14.768;2023-01-23T10:30:06;101105.25;;;3.10;100.00
46876;BME280;32866;50.160;14.768;2023-01-23T10:32:48;101096.16;;;3.02;100.00
46876;BME280;32866;50.160;14.768;2023-01-23T10:35:19;101106.59;;;2.88;100.00
46876;BME280;32866;50.160;14.768;2023-01-23T10:40:33;101096.75;;;3.24;100.00
46876;BME280;32866;50.160;14.768;2023-01-23T10:43:19;101102.78;;;3.05;100.00
46876;BME280;32866;50.160;14.768;2023-01-23T10:45:46;101099.13;;;2.97;100.00
46876;BME280;32866;50.160;14.768;2023-01-23T10:50:55;101094.53;;;2.85;100.00
46876;BME280;32866;50.160;14.768;2023-01-23T10:53:22;101096.19;;;2.62;100.00
46876;BME280;32866;50.160;14.768;2023-01-23T10:55:49;101094.22;;;3.03;100.00
46876;BME280;32866;50.160;14.768;2023-01-23T10:58:37;101090.53;;;3.23;100.00
46876;BME280;32866;50.160;14.768;2023-01-23T11:01:05;101089.59;;;3.03;100.00
46876;BME280;32866;50.160;14.768;2023-01-23T11:03:33;101083.53;;;3.22;100.00
46876;BME280;32866;50.160;14.768;2023-01-23T11:06:07;101087.34;;;3.05;100.00
46876;BME280;32866;50.160;14.768;2023-01-23T11:08:39;101093.88;;;3.04;100.00
46876;BME280;32866;50.160;14.768;2023-01-23T11:11:20;101082.16;;;2.72;100.00
46876;BME280;32866;50.160;14.768;2023-01-23T11:13:48;101081.34;;;3.12;100.00
46876;BME280;32866;50.160;14.768;2023-01-23T11:16:17;101072.63;;;3.19;100.00
46876;BME280;32866;50.160;14.768;2023-01-23T11:21:23;101080.06;;;3.38;100.00
46876;BME280;32866;50.160;14.768;2023-01-23T11:24:18;101085.00;;;3.64;100.00
46876;BME280;32866;50.160;14.768;2023-01-23T11:26:44;101060.84;;;4.61;100.00
46876;BME280;32866;50.160;14.768;2023-01-23T11:29:22;101068.75;;;4.31;100.00
46876;BME280;32866;50.160;14.768;2023-01-23T11:32:10;101073.97;;;3.88;100.00
46876;BME280;32866;50.160;14.768;2023-01-23T11:34:40;101071.88;;;3.66;100.00
46876;BME280;32866;50.160;14.768;2023-01-23T11:37:17;101060.31;;;3.37;100.00
46876;BME280;32866;50.160;14.768;2023-01-23T11:39:56;101032.59;;;2.84;100.00
46876;BME280;32866;50.160;14.768;2023-01-23T11:42:26;101059.00;;;3.31;100.00
46876;BME280;32866;50.160;14.768;2023-01-23T11:44:52;101013.81;;;2.75;100.00
46876;BME280;32866;50.160;14.768;2023-01-23T11:50:29;101051.69;;;2.75;100.00
46876;BME280;32866;50.160;14.768;2023-01-23T11:58:33;101038.19;;;2.63;100.00
46876;BME280;32866;50.160;14.768;2023-01-23T12:07:19;101036.78;;;2.81;100.00
46876;BME280;32866;50.160;14.768;2023-01-23T12:10:13;101030.91;;;2.79;100.00
46876;BME280;32866;50.160;14.768;2023-01-23T12:21:50;101031.78;;;2.83;100.00
46876;BME280;32866;50.160;14.768;2023-01-23T12:27:05;101018.38;;;2.46;100.00
46876;BME280;32866;50.160;14.768;2023-01-23T12:32:25;101004.84;;;2.18;100.00
46876;BME280;32866;50.160;14.768;2023-01-23T12:40:27;101008.38;;;2.34;100.00
46876;BME280;32866;50.160;14.768;2023-01-23T12:43:08;101006.84;;;2.21;100.00
46876;BME280;32866;50.160;14.768;2023-01-23T12:45:36;101026.06;;;2.44;100.00
46876;BME280;32866;50.160;14.768;2023-01-23T12:48:28;101020.41;;;2.62;100.00
46876;BME280;32866;50.160;14.768;2023-01-23T12:51:01;101024.59;;;2.47;100.00
46876;BME280;32866;50.160;14.768;2023-01-23T12:53:32;101029.50;;;2.29;100.00
46876;BME280;32866;50.160;14.768;2023-01-23T12:56:05;101029.88;;;2.15;100.00
46876;BME280;32866;50.160;14.768;2023-01-23T12:58:34;101019.25;;;2.22;100.00
46876;BME280;32866;50.160;14.768;2023-01-23T13:01:25;101018.84;;;1.95;100.00
46876;BME280;32866;50.160;14.768;2023-01-23T13:12:24;101031.47;;;1.66;100.00
46876;BME280;32866;50.160;14.768;2023-01-23T13:23:32;101021.66;;;1.50;100.00
46876;BME280;32866;50.160;14.768;2023-01-23T13:26:23;101028.84;;;1.45;100.00
46876;BME280;32866;50.160;14.768;2023-01-23T13:28:51;101026.25;;;1.37;100.00
46876;BME280;32866;50.160;14.768;2023-01-23T13:31:39;101025.19;;;1.29;100.00
46876;BME280;32866;50.160;14.768;2023-01-23T13:36:41;101031.03;;;1.19;100.00
46876;BME280;32866;50.160;14.768;2023-01-23T13:41:43;101038.44;;;1.09;100.00
46876;BME280;32866;50.160;14.768;2023-01-23T13:44:20;101043.41;;;1.07;100.00
46876;BME280;32866;50.160;14.768;2023-01-23T13:49:43;101038.91;;;1.11;100.00
46876;BME280;32866;50.160;14.768;2023-01-23T13:52:25;101039.56;;;1.08;100.00
46876;BME280;32866;50.160;14.768;2023-01-23T13:55:31;101046.16;;;0.99;100.00
46876;BME280;32866;50.160;14.768;2023-01-23T13:58:20;101044.47;;;0.94;100.00
46876;BME280;32866;50.160;14.768;2023-01-23T14:03:40;101056.38;;;0.93;100.00
46876;BME280;32866;50.160;14.768;2023-01-23T14:06:51;101051.78;;;0.93;100.00
46876;BME280;32866;50.160;14.768;2023-01-23T14:09:30;101012.88;;;0.73;100.00
46876;BME280;32866;50.160;14.768;2023-01-23T14:12:01;101055.75;;;1.08;100.00
46876;BME280;32866;50.160;14.768;2023-01-23T14:14:32;101044.28;;;0.99;100.00
46876;BME280;32866;50.160;14.768;2023-01-23T14:17:17;101052.09;;;0.92;100.00
46876;BME280;32866;50.160;14.768;2023-01-23T14:22:16;101003.81;;;0.78;100.00